Time;durP1;ratioP1;P1;durP2;ratioP2;P2;SDS_P1;SDS_P2;PMS_P1;PMS_P2;Temp;Humidity;BMP_temperature;BMP_pressure;BME280_temperature;BME280_humidity;BME280_pressure;Samples;Min_cycle;Max_cycle;Signal;HPM_P1;HPM_P2
2022/02/22 00:02:24;;;;;;;21.60;8.85;;;;;;;3.60;100.00;98943.44;6256419;28;20072;-75
2022/02/22 00:05:25;;;;;;;18.58;9.38;;;;;;;3.52;100.00;98948.16;6274362;28;20045;-74
2022/02/22 00:08:26;;;;;;;16.70;9.85;;;;;;;3.52;100.00;98955.88;6273248;28;20049;-71
2022/02/22 00:11:27;;;;;;;21.77;11.90;;;;;;;3.50;100.00;98948.25;6273528;28;20544;-74
2022/02/22 00:14:28;;;;;;;23.07;12.03;;;;;;;3.50;100.00;98956.00;6255715;28;20049;-74
2022/02/22 00:17:33;;;;;;;21.83;12.30;;;;;;;3.52;100.00;98966.19;6272181;28;20102;-71
2022/02/22 00:20:34;;;;;;;24.17;12.43;;;;;;;3.45;100.00;98968.25;6272545;28;20055;-71
2022/02/22 00:23:34;;;;;;;22.58;12.93;;;;;;;3.43;100.00;98980.38;6274012;28;20037;-70
2022/02/22 00:26:35;;;;;;;21.30;12.43;;;;;;;3.34;100.00;98973.13;6272658;28;20494;-70
2022/02/22 00:29:36;;;;;;;17.00;9.98;;;;;;;3.28;100.00;98973.41;6272567;28;20124;-71
2022/02/22 00:32:40;;;;;;;17.02;9.15;;;;;;;3.23;100.00;98973.63;6273985;28;20478;-71
2022/02/22 00:35:41;;;;;;;15.32;8.85;;;;;;;3.19;100.00;98972.09;6289188;28;20072;-74
2022/02/22 00:38:42;;;;;;;19.50;10.52;;;;;;;3.13;100.00;98959.50;6288996;28;20376;-74
2022/02/22 00:41:43;;;;;;;18.10;9.27;;;;;;;3.03;100.00;98972.00;6273670;28;20045;-74
2022/02/22 00:44:44;;;;;;;16.17;8.80;;;;;;;2.93;100.00;98979.31;6255145;28;20060;-74
2022/02/22 00:47:45;;;;;;;16.35;9.02;;;;;;;2.93;100.00;98979.31;6271643;28;20041;-74
2022/02/22 00:50:46;;;;;;;13.70;8.50;;;;;;;2.89;100.00;98989.84;6273276;28;20502;-74
2022/02/22 00:53:47;;;;;;;19.90;10.05;;;;;;;2.80;100.00;98989.38;6255670;28;20488;-73
2022/02/22 00:56:48;;;;;;;19.23;9.77;;;;;;;2.77;100.00;98993.81;6273064;28;20049;-74
2022/02/22 00:59:49;;;;;;;24.88;13.73;;;;;;;2.59;100.00;98983.47;6271998;28;20068;-70
2022/02/22 01:02:50;;;;;;;27.33;14.10;;;;;;;2.61;100.00;98991.09;6238846;28;20065;-74
2022/02/22 01:05:50;;;;;;;23.08;12.50;;;;;;;2.61;100.00;98997.13;6272803;28;20045;-74
2022/02/22 01:08:51;;;;;;;23.40;12.20;;;;;;;2.53;100.00;98982.88;6271701;28;20045;-74
2022/02/22 01:11:52;;;;;;;23.45;12.35;;;;;;;2.52;100.00;98983.81;6271738;28;20045;-74
2022/02/22 01:14:53;;;;;;;18.95;10.30;;;;;;;2.52;100.00;98986.38;6272068;28;20497;-71
2022/02/22 01:17:54;;;;;;;20.25;8.55;;;;;;;2.49;100.00;98989.09;6272927;28;20040;-70
2022/02/22 01:20:55;;;;;;;16.88;8.82;;;;;;;2.43;100.00;98987.63;6272912;28;20605;-73
2022/02/22 01:23:56;;;;;;;14.77;8.00;;;;;;;2.36;100.00;98983.66;6272634;28;20049;-70
2022/02/22 01:26:56;;;;;;;19.77;8.60;;;;;;;2.32;100.00;98993.25;6271183;28;20053;-70
2022/02/22 01:29:57;;;;;;;20.08;9.60;;;;;;;2.06;100.00;98996.09;6271410;28;20041;-70
2022/02/22 01:32:58;;;;;;;21.17;9.40;;;;;;;1.95;100.00;99002.56;6271351;28;20095;-70
2022/02/22 01:35:59;;;;;;;20.88;8.95;;;;;;;1.97;100.00;98993.03;6271368;28;20468;-73
2022/02/22 01:39:00;;;;;;;17.27;8.27;;;;;;;1.97;100.00;98993.03;6271191;28;20045;-73
2022/02/22 01:42:02;;;;;;;15.00;7.95;;;;;;;1.99;100.00;98998.13;6272162;28;20041;-73
2022/02/22 01:45:04;;;;;;;17.67;8.70;;;;;;;2.04;100.00;98993.63;6254392;28;20579;-70
2022/02/22 01:48:06;;;;;;;19.13;8.18;;;;;;;2.01;100.00;98989.44;6272474;28;20431;-69
2022/02/22 01:51:08;;;;;;;66.30;28.92;;;;;;;2.00;100.00;98982.63;6272152;28;20052;-70
2022/02/22 01:54:09;;;;;;;48.05;21.00;;;;;;;1.99;100.00;98983.50;6304110;28;20068;-70
2022/02/22 01:57:10;;;;;;;24.85;11.82;;;;;;;1.94;100.00;98995.75;6271732;28;20053;-70
2022/02/22 02:00:12;;;;;;;18.25;8.07;;;;;;;1.93;100.00;98993.22;6287605;28;20079;-70
2022/02/22 02:03:14;;;;;;;16.67;8.27;;;;;;;1.74;100.00;98994.00;6221945;28;20056;-72
2022/02/22 02:06:17;;;;;;;19.00;8.30;;;;;;;1.67;100.00;98991.75;6254189;28;20052;-71
2022/02/22 02:09:18;;;;;;;13.40;6.90;;;;;;;1.60;100.00;99004.84;6270949;28;20052;-72
2022/02/22 02:12:19;;;;;;;11.98;6.35;;;;;;;1.55;100.00;98998.25;6271709;28;20048;-72
2022/02/22 02:15:20;;;;;;;10.23;6.18;;;;;;;1.61;100.00;99003.97;6271601;28;20053;-72
2022/02/22 02:18:21;;;;;;;10.80;5.68;;;;;;;1.67;100.00;98999.47;6272028;28;20083;-72
2022/02/22 02:21:22;;;;;;;10.15;5.38;;;;;;;1.67;100.00;99009.75;6270925;28;20140;-69
2022/02/22 02:24:25;;;;;;;9.25;4.85;;;;;;;1.68;100.00;99004.53;6271281;28;20516;-72
2022/02/22 02:27:26;;;;;;;7.53;4.13;;;;;;;1.71;100.00;99008.72;6276748;28;20491;-72
2022/02/22 02:30:28;;;;;;;6.95;4.32;;;;;;;1.77;100.00;98983.59;6275628;28;20045;-69
2022/02/22 02:33:29;;;;;;;10.05;4.82;;;;;;;1.79;100.00;99006.66;6276625;28;20044;-72
2022/02/22 02:36:32;;;;;;;11.23;4.47;;;;;;;1.75;100.00;99007.69;6275298;28;20084;-72
2022/02/22 02:39:33;;;;;;;11.20;5.38;;;;;;;1.70;100.00;99018.19;6276701;28;20569;-69
2022/02/22 02:42:34;;;;;;;12.40;4.60;;;;;;;1.66;100.00;99015.81;6276190;28;20049;-69
2022/02/22 02:45:35;;;;;;;8.05;4.40;;;;;;;1.61;100.00;99027.13;6276227;28;20107;-72
2022/02/22 02:48:35;;;;;;;7.57;4.07;;;;;;;1.60;100.00;99027.16;6275153;28;20491;-71
2022/02/22 02:51:37;;;;;;;7.47;3.97;;;;;;;1.61;100.00;99031.44;6258601;28;20044;-72
2022/02/22 02:54:38;;;;;;;7.30;3.92;;;;;;;1.55;100.00;99032.50;6275123;28;20049;-71
2022/02/22 02:57:39;;;;;;;9.00;4.22;;;;;;;1.55;100.00;99037.66;6291620;28;20403;-72
2022/02/22 03:00:39;;;;;;;6.32;3.60;;;;;;;1.64;100.00;99041.56;6276025;28;20052;-71
2022/02/22 03:03:40;;;;;;;9.02;4.38;;;;;;;1.60;100.00;99051.13;6274820;28;20456;-71
2022/02/22 03:06:41;;;;;;;10.38;4.05;;;;;;;1.54;100.00;99047.97;6275771;28;20435;-71
2022/02/22 03:09:42;;;;;;;7.78;3.50;;;;;;;1.52;100.00;99044.63;6273949;28;20076;-71
2022/02/22 03:12:42;;;;;;;7.20;4.18;;;;;;;1.52;100.00;99047.22;6274923;28;20409;-71
2022/02/22 03:15:43;;;;;;;9.07;3.78;;;;;;;1.40;100.00;99044.25;6275088;28;20067;-69
2022/02/22 03:18:45;;;;;;;8.20;3.92;;;;;;;1.39;100.00;99052.00;6273869;28;20072;-72
2022/02/22 03:21:46;;;;;;;8.18;4.05;;;;;;;1.30;100.00;99049.81;6274840;28;20045;-69
2022/02/22 03:24:48;;;;;;;8.40;4.28;;;;;;;1.39;100.00;99057.16;6275242;28;20083;-71
2022/02/22 03:27:49;;;;;;;11.20;3.97;;;;;;;1.32;100.00;99053.13;6273955;28;20045;-72
2022/02/22 03:30:49;;;;;;;7.68;4.25;;;;;;;1.38;100.00;99055.47;6257100;28;20549;-72
2022/02/22 03:33:52;;;;;;;7.85;3.92;;;;;;;1.09;100.00;99046.31;6257229;28;20068;-72
2022/02/22 03:36:53;;;;;;;9.95;4.18;;;;;;;1.24;100.00;99056.03;6256846;28;20380;-71
2022/02/22 03:39:54;;;;;;;10.73;4.78;;;;;;;1.29;100.00;99061.81;6240773;28;20059;-71
2022/02/22 03:42:55;;;;;;;8.80;4.60;;;;;;;1.39;100.00;99067.44;6273612;28;20053;-72
2022/02/22 03:45:55;;;;;;;8.93;4.25;;;;;;;1.38;100.00;99061.47;6274663;28;20044;-71
2022/02/22 03:48:56;;;;;;;10.93;5.43;;;;;;;1.43;100.00;99081.84;6257118;28;20096;-68
2022/02/22 03:51:57;;;;;;;14.85;5.05;;;;;;;1.41;100.00;99081.06;6273581;28;20190;-71
2022/02/22 03:54:58;;;;;;;10.25;5.05;;;;;;;1.28;100.00;99083.28;6273567;28;20049;-71
2022/02/22 03:57:59;;;;;;;15.35;5.65;;;;;;;1.17;100.00;99095.69;6273300;28;20075;-71
2022/02/22 04:01:00;;;;;;;8.90;4.65;;;;;;;1.15;100.00;99097.47;6274786;28;20041;-71
2022/02/22 04:04:00;;;;;;;14.95;4.70;;;;;;;1.13;100.00;99101.84;6274592;28;20045;-71
2022/02/22 04:07:01;;;;;;;13.00;4.97;;;;;;;1.05;100.00;99094.44;6272949;28;20049;-71
2022/02/22 04:10:08;;;;;;;10.98;5.20;;;;;;;0.99;100.00;99103.19;6274518;28;20041;-71
2022/02/22 04:13:08;;;;;;;10.98;4.95;;;;;;;0.99;100.00;99103.19;6274213;28;20037;-71
2022/02/22 04:16:09;;;;;;;9.95;4.65;;;;;;;0.95;100.00;99109.34;6272454;28;20072;-71
2022/02/22 04:19:10;;;;;;;10.10;4.28;;;;;;;0.93;100.00;99108.56;6273474;28;20412;-71
2022/02/22 04:22:11;;;;;;;11.82;4.82;;;;;;;0.94;100.00;99105.09;6256461;28;20065;-72
2022/02/22 04:25:12;;;;;;;10.20;4.40;;;;;;;0.85;100.00;99102.88;6272651;28;20533;-71
2022/02/22 04:28:13;;;;;;;9.05;4.40;;;;;;;0.82;100.00;99102.97;6256149;28;20045;-68
2022/02/22 04:31:13;;;;;;;11.77;4.97;;;;;;;0.79;100.00;99101.34;6272555;28;20049;-69
2022/02/22 04:34:14;;;;;;;7.95;4.75;;;;;;;0.75;100.00;99084.38;6256047;28;20451;-68
2022/02/22 04:37:16;;;;;;;10.05;4.95;;;;;;;0.69;100.00;99083.78;6255807;28;20044;-71
2022/02/22 04:40:17;;;;;;;8.65;4.40;;;;;;;0.62;100.00;99090.00;6272659;28;20053;-71
2022/02/22 04:43:18;;;;;;;7.90;5.18;;;;;;;0.57;100.00;99105.56;6255648;28;20136;-69
2022/02/22 04:46:19;;;;;;;14.20;6.13;;;;;;;0.43;100.00;99106.03;6273315;28;20049;-69
2022/02/22 04:49:20;;;;;;;13.15;7.00;;;;;;;0.49;100.00;99115.28;6272537;28;20076;-71
2022/02/22 04:52:21;;;;;;;27.17;10.10;;;;;;;0.39;100.00;99115.59;6272437;28;20048;-72
2022/02/22 04:55:22;;;;;;;16.63;7.03;;;;;;;0.35;100.00;99116.59;6273288;28;20123;-72
2022/02/22 04:58:23;;;;;;;12.13;6.18;;;;;;;0.42;100.00;99111.25;6271722;28;20132;-71
2022/02/22 05:01:24;;;;;;;14.10;5.50;;;;;;;0.47;100.00;99109.34;6255609;28;20051;-71
2022/02/22 05:04:25;;;;;;;9.88;5.63;;;;;;;0.52;100.00;99113.44;6273194;28;20072;-68
2022/02/22 05:07:26;;;;;;;9.48;6.00;;;;;;;0.49;100.00;99113.53;6271666;28;20052;-69
2022/02/22 05:10:27;;;;;;;9.88;5.68;;;;;;;0.56;100.00;99115.00;6255408;28;20047;-69
2022/02/22 05:13:27;;;;;;;11.02;5.47;;;;;;;0.60;100.00;99126.84;6272766;28;20040;-72
2022/02/22 05:16:30;;;;;;;10.65;5.22;;;;;;;0.60;100.00;99131.97;6271697;28;20086;-71
2022/02/22 05:19:31;;;;;;;10.85;5.82;;;;;;;0.66;100.00;99130.94;6286695;28;20059;-71
2022/02/22 05:22:42;;;;;;;12.00;5.68;;;;;;;0.66;100.00;99135.22;6277756;28;20060;-71
2022/02/22 05:25:43;;;;;;;11.00;5.13;;;;;;;0.65;100.00;99141.25;6295417;28;20044;-71
2022/02/22 05:28:45;;;;;;;10.45;5.47;;;;;;;0.66;100.00;99151.47;6295316;28;20407;-71
2022/02/22 05:31:46;;;;;;;10.43;5.75;;;;;;;0.69;100.00;99151.34;6278164;28;20407;-71
2022/02/22 05:34:47;;;;;;;11.52;6.55;;;;;;;0.69;100.00;99153.09;6271792;28;20064;-72
2022/02/22 05:37:47;;;;;;;84.88;32.88;;;;;;;0.63;100.00;99145.59;6271543;28;20098;-72
2022/02/22 05:40:48;;;;;;;98.38;40.40;;;;;;;0.67;100.00;99150.56;6253757;28;20049;-72
2022/02/22 05:43:50;;;;;;;72.25;35.17;;;;;;;0.66;100.00;99153.19;6270285;28;20463;-72
2022/02/22 05:46:51;;;;;;;41.15;25.20;;;;;;;0.63;100.00;99166.97;6270290;28;20479;-71
2022/02/22 05:49:51;;;;;;;36.20;18.77;;;;;;;0.64;100.00;99160.97;6253638;28;20064;-72
2022/02/22 05:52:53;;;;;;;14.15;8.32;;;;;;;0.70;100.00;99167.59;6284568;28;20582;-71
2022/02/22 05:55:54;;;;;;;13.13;7.53;;;;;;;0.67;100.00;99167.72;6281330;28;20121;-68
2022/02/22 05:58:56;;;;;;;15.88;6.82;;;;;;;0.72;100.00;99169.25;6269564;28;20495;-68
2022/02/22 06:01:56;;;;;;;11.23;6.47;;;;;;;0.67;100.00;99167.72;6269425;28;20037;-68
2022/02/22 06:04:57;;;;;;;11.95;6.55;;;;;;;0.52;100.00;99158.81;6269521;28;20060;-72
2022/02/22 06:07:58;;;;;;;11.15;6.43;;;;;;;0.56;100.00;99176.63;6269870;28;20098;-68
2022/02/22 06:10:59;;;;;;;18.85;10.80;;;;;;;0.69;100.00;99176.22;6253237;28;20041;-68
2022/02/22 06:13:59;;;;;;;43.28;26.42;;;;;;;0.71;100.00;99180.38;6269544;28;20045;-68
2022/02/22 06:17:00;;;;;;;99.65;50.83;;;;;;;0.73;100.00;99191.44;6270893;28;20048;-68
2022/02/22 06:20:01;;;;;;;81.90;44.08;;;;;;;0.78;100.00;99191.28;6252770;28;20061;-68
2022/02/22 06:23:02;;;;;;;29.95;18.80;;;;;;;0.87;100.00;99201.25;6253186;28;20098;-68
2022/02/22 06:26:07;;;;;;;18.38;10.35;;;;;;;0.90;100.00;99205.44;6269487;28;20049;-68
2022/02/22 06:29:09;;;;;;;11.87;7.53;;;;;;;1.03;100.00;99224.69;6253057;28;20041;-69
2022/02/22 06:32:10;;;;;;;14.37;7.40;;;;;;;1.04;100.00;99228.91;6269442;28;20668;-68
2022/02/22 06:35:11;;;;;;;16.60;7.60;;;;;;;1.08;100.00;99234.78;6269379;28;20095;-68
2022/02/22 06:38:12;;;;;;;19.98;9.93;;;;;;;1.12;100.00;99241.50;6270687;28;20048;-69
2022/02/22 06:41:13;;;;;;;14.98;7.57;;;;;;;1.00;100.00;99235.03;6269192;28;20458;-69
2022/02/22 06:44:15;;;;;;;12.98;6.78;;;;;;;1.15;100.00;99236.22;6270469;28;20053;-68
2022/02/22 06:47:16;;;;;;;13.27;6.82;;;;;;;1.24;100.00;99245.38;6270449;28;20484;-70
2022/02/22 06:50:17;;;;;;;13.07;6.20;;;;;;;1.34;100.00;99254.41;6270833;28;20047;-69
2022/02/22 06:53:18;;;;;;;13.40;7.50;;;;;;;1.49;100.00;99253.03;6272959;28;20040;-71
2022/02/22 06:56:19;;;;;;;12.70;6.57;;;;;;;1.51;100.00;99256.38;6279347;28;20128;-72
2022/02/22 06:59:20;;;;;;;10.48;5.68;;;;;;;1.61;100.00;99261.13;6252633;28;20076;-69
2022/02/22 07:02:20;;;;;;;14.13;6.47;;;;;;;1.53;100.00;99258.00;6269761;28;20102;-69
2022/02/22 07:05:22;;;;;;;13.57;6.53;;;;;;;1.66;100.00;99262.69;6282201;28;20464;-69
2022/02/22 07:08:22;;;;;;;11.50;6.32;;;;;;;1.90;100.00;99259.19;6263625;28;20140;-72
2022/02/22 07:11:24;;;;;;;9.52;5.55;;;;;;;1.95;100.00;99267.56;6281703;28;20052;-72
2022/02/22 07:14:25;;;;;;;14.70;5.80;;;;;;;2.20;100.00;99270.03;6283192;28;20049;-72
2022/02/22 07:17:26;;;;;;;11.55;6.22;;;;;;;2.33;100.00;99277.28;6256957;28;20119;-72
2022/02/22 07:20:27;;;;;;;11.05;6.38;;;;;;;2.46;100.00;99288.75;6273300;28;20056;-72
2022/02/22 07:23:28;;;;;;;11.27;6.15;;;;;;;2.49;100.00;99288.66;6274584;28;20483;-69
2022/02/22 07:26:29;;;;;;;14.00;7.10;;;;;;;2.59;100.00;99294.25;6273156;28;20094;-69
2022/02/22 07:29:30;;;;;;;14.95;6.80;;;;;;;2.71;100.00;99293.75;6240000;28;20049;-69
2022/02/22 07:32:32;;;;;;;12.20;6.90;;;;;;;2.85;100.00;99306.06;6273283;28;20392;-69
2022/02/22 07:35:33;;;;;;;11.80;6.47;;;;;;;2.95;100.00;99312.53;6274262;28;20041;-69
2022/02/22 07:38:34;;;;;;;17.65;8.18;;;;;;;3.15;100.00;99309.13;6272846;28;20041;-69
2022/02/22 07:41:35;;;;;;;18.15;7.70;;;;;;;3.18;99.64;99310.72;6272995;28;20037;-69
2022/02/22 07:44:36;;;;;;;22.98;7.82;;;;;;;3.37;97.51;99311.59;6273862;28;20060;-72
2022/02/22 07:47:37;;;;;;;18.13;7.22;;;;;;;3.39;98.59;99314.94;6256034;28;20048;-72
2022/02/22 07:50:38;;;;;;;15.55;7.65;;;;;;;3.59;96.59;99321.81;6294812;28;20056;-72
2022/02/22 07:53:39;;;;;;;24.17;8.57;;;;;;;3.83;98.67;99334.56;6288840;28;20068;-73
2022/02/22 07:56:40;;;;;;;14.82;7.35;;;;;;;3.88;97.21;99329.19;6273586;28;20049;-69
2022/02/22 07:59:42;;;;;;;18.33;6.50;;;;;;;4.04;94.38;99343.91;6275889;28;20514;-69
2022/02/22 08:02:43;;;;;;;15.05;6.82;;;;;;;4.28;95.29;99342.84;6272552;28;20056;-70
2022/02/22 08:05:44;;;;;;;10.40;5.50;;;;;;;4.21;90.17;99350.88;6272596;28;20116;-70
2022/02/22 08:08:45;;;;;;;11.77;5.90;;;;;;;4.44;90.42;99351.53;6297386;28;20063;-70
2022/02/22 08:11:46;;;;;;;10.73;5.53;;;;;;;4.62;90.85;99352.44;6297029;28;20094;-69
2022/02/22 08:14:47;;;;;;;12.83;5.23;;;;;;;4.42;88.67;99353.38;6296956;28;20495;-74
2022/02/22 08:17:48;;;;;;;15.45;6.00;;;;;;;4.71;89.85;99362.31;6280382;28;20044;-71
2022/02/22 08:20:49;;;;;;;12.85;7.57;;;;;;;4.85;88.67;99364.25;6296672;28;20055;-70
2022/02/22 08:23:50;;;;;;;9.93;4.05;;;;;;;4.63;86.74;99361.84;6254639;28;20080;-74
2022/02/22 08:26:54;;;;;;;8.80;5.45;;;;;;;5.30;85.97;99359.47;6281341;28;20117;-76
2022/02/22 08:29:55;;;;;;;9.38;4.70;;;;;;;5.26;83.26;99366.53;6297716;28;20045;-73
2022/02/22 08:32:55;;;;;;;12.88;5.45;;;;;;;5.13;85.82;99373.25;6265413;28;20056;-74
2022/02/22 08:35:58;;;;;;;10.80;4.60;;;;;;;4.93;85.38;99369.88;6271551;28;20492;-74
2022/02/22 08:39:01;;;;;;;9.90;5.05;;;;;;;5.14;86.22;99380.09;6276004;28;20520;-70
2022/02/22 08:42:06;;;;;;;13.05;4.93;;;;;;;5.22;87.34;99390.88;6274276;28;20048;-69
2022/02/22 08:45:07;;;;;;;10.07;4.57;;;;;;;5.15;88.63;99386.94;6288574;28;20057;-69
2022/02/22 08:48:08;;;;;;;11.30;5.22;;;;;;;5.55;85.65;99396.13;6281368;28;20118;-74
2022/02/22 08:51:09;;;;;;;7.85;4.88;;;;;;;5.94;84.57;99407.94;6287280;28;20056;-74
2022/02/22 08:54:10;;;;;;;10.15;5.40;;;;;;;6.11;84.44;99414.00;6271980;28;20045;-74
2022/02/22 08:57:11;;;;;;;12.70;5.90;;;;;;;6.08;82.39;99416.78;6272440;28;20470;-71
2022/02/22 09:00:14;;;;;;;10.27;5.63;;;;;;;6.14;81.05;99413.88;6270871;28;20419;-70
2022/02/22 09:03:15;;;;;;;12.60;5.50;;;;;;;6.22;81.94;99409.94;6287664;28;20132;-70
2022/02/22 09:06:16;;;;;;;14.13;5.60;;;;;;;6.48;81.33;99417.22;6271001;28;20128;-71
2022/02/22 09:09:17;;;;;;;11.45;5.40;;;;;;;6.66;79.81;99421.41;6271047;28;20415;-71
2022/02/22 09:12:18;;;;;;;11.93;5.68;;;;;;;6.65;78.25;99417.13;6270947;28;20045;-74
2022/02/22 09:15:22;;;;;;;14.13;6.13;;;;;;;6.80;79.73;99431.84;6270585;28;20063;-74
2022/02/22 09:18:23;;;;;;;9.15;5.57;;;;;;;7.19;77.09;99432.31;6272005;28;20094;-70
2022/02/22 09:21:26;;;;;;;11.70;5.28;;;;;;;7.02;76.74;99436.69;6253807;28;20438;-74
2022/02/22 09:24:27;;;;;;;11.00;5.15;;;;;;;7.19;75.76;99438.34;6270655;28;20081;-74
2022/02/22 09:27:28;;;;;;;9.27;5.05;;;;;;;7.74;72.66;99438.63;6253829;28;20044;-74
2022/02/22 09:30:31;;;;;;;9.60;5.40;;;;;;;7.84;72.74;99445.81;6287103;28;20072;-74
2022/02/22 09:33:31;;;;;;;10.75;5.07;;;;;;;7.59;73.00;99443.81;6254029;28;20052;-74
2022/02/22 09:36:32;;;;;;;12.13;5.95;;;;;;;7.64;77.37;99451.34;6253308;28;20053;-71
2022/02/22 09:39:34;;;;;;;12.07;5.32;;;;;;;7.87;70.19;99460.38;6270364;28;20041;-70
2022/02/22 09:42:36;;;;;;;13.13;5.75;;;;;;;7.98;75.26;99450.16;6270079;28;20045;-70
2022/02/22 09:45:36;;;;;;;8.75;4.10;;;;;;;8.20;66.69;99456.69;6253763;28;20106;-70
2022/02/22 09:48:37;;;;;;;7.38;3.25;;;;;;;8.34;64.21;99458.44;6270104;28;20047;-70
2022/02/22 09:51:38;;;;;;;6.85;3.20;;;;;;;8.18;65.30;99468.94;6258612;28;20048;-70
2022/02/22 09:54:39;;;;;;;8.30;3.15;;;;;;;8.00;65.84;99473.47;6276046;28;20041;-70
2022/02/22 09:57:40;;;;;;;7.85;3.08;;;;;;;7.83;66.32;99472.72;6253441;28;20049;-74
2022/02/22 10:00:41;;;;;;;9.95;3.28;;;;;;;8.42;64.36;99469.22;6253269;28;20061;-74
2022/02/22 10:03:42;;;;;;;9.45;3.95;;;;;;;8.41;64.82;99468.41;6295360;28;20041;-74
2022/02/22 10:06:43;;;;;;;5.72;3.55;;;;;;;8.40;64.22;99465.84;6294927;28;20403;-74
2022/02/22 10:10:03;;;;;;;8.07;3.20;;;;;;;8.38;66.13;99467.72;6294617;28;20069;-70
2022/02/22 10:13:06;;;;;;;12.10;4.65;;;;;;;8.46;65.73;99468.09;6261603;28;20080;-74
2022/02/22 10:16:12;;;;;;;9.25;4.50;;;;;;;8.50;66.85;99467.00;6295875;28;20122;-74
2022/02/22 10:19:17;;;;;;;9.18;4.60;;;;;;;8.85;68.26;99458.75;6295034;28;20056;-70
2022/02/22 10:22:18;;;;;;;11.32;4.60;;;;;;;8.96;67.25;99468.50;6295781;28;20094;-74
2022/02/22 10:25:21;;;;;;;7.82;3.70;;;;;;;9.19;65.81;99464.41;6294544;28;20041;-74
2022/02/22 10:28:22;;;;;;;11.57;4.43;;;;;;;9.10;66.03;99465.00;6294462;28;20059;-70
2022/02/22 10:31:33;;;;;;;10.05;4.60;;;;;;;9.04;63.95;99469.69;6295615;28;20111;-74
2022/02/22 10:34:34;;;;;;;8.60;4.45;;;;;;;9.23;66.20;99484.13;6295834;28;20037;-73
2022/02/22 10:37:35;;;;;;;11.20;4.50;;;;;;;9.13;66.26;99488.25;6277857;28;20399;-70
2022/02/22 10:40:36;;;;;;;10.65;3.83;;;;;;;9.14;64.74;99485.53;6260994;28;20119;-74
2022/02/22 10:43:38;;;;;;;6.38;3.65;;;;;;;8.95;67.51;99501.47;6294344;28;20071;-71
2022/02/22 10:46:45;;;;;;;10.05;3.83;;;;;;;9.40;67.70;99503.84;6280050;28;20059;-70
2022/02/22 10:49:48;;;;;;;11.05;4.30;;;;;;;9.45;63.90;99505.22;6299295;28;20380;-70
2022/02/22 10:52:50;;;;;;;7.45;4.60;;;;;;;9.80;64.02;99509.88;6298730;28;20111;-71
2022/02/22 10:55:51;;;;;;;8.02;3.88;;;;;;;9.86;64.74;99503.41;6282470;28;20045;-70
2022/02/22 10:58:54;;;;;;;9.07;3.97;;;;;;;9.97;62.89;99513.97;6282364;28;20128;-70
2022/02/22 11:01:55;;;;;;;7.65;3.38;;;;;;;10.25;60.50;99512.09;6298702;28;20105;-70
2022/02/22 11:04:56;;;;;;;11.23;3.43;;;;;;;10.53;59.88;99505.84;6300023;28;20044;-70
2022/02/22 11:07:57;;;;;;;6.05;3.17;;;;;;;10.13;58.48;99502.50;6298581;28;20041;-70
2022/02/22 11:11:04;;;;;;;7.57;3.30;;;;;;;10.39;60.81;99514.63;6282079;28;20157;-71
2022/02/22 11:14:21;;;;;;;6.50;3.17;;;;;;;10.38;59.37;99518.19;6298337;28;20049;-74
2022/02/22 11:17:23;;;;;;;8.02;2.55;;;;;;;10.51;54.01;99507.72;6298503;28;20075;-73
2022/02/22 11:20:32;;;;;;;6.13;2.87;;;;;;;10.37;54.77;99516.50;6299623;28;20121;-73
2022/02/22 11:23:33;;;;;;;5.07;2.50;;;;;;;10.72;52.33;99513.22;6294738;28;20052;-73
2022/02/22 11:26:44;;;;;;;5.75;2.25;;;;;;;10.84;55.47;99520.19;6288203;28;20098;-73
2022/02/22 11:29:56;;;;;;;7.10;2.42;;;;;;;11.22;52.79;99518.38;6289912;28;20053;-73
2022/02/22 11:33:00;;;;;;;9.32;3.35;;;;;;;11.22;52.43;99521.00;6256619;28;20060;-71
2022/02/22 11:36:05;;;;;;;4.57;2.40;;;;;;;11.00;51.90;99517.31;6273169;28;20056;-70
2022/02/22 11:39:18;;;;;;;5.30;2.30;;;;;;;11.21;50.69;99514.13;6275579;28;20059;-69
2022/02/22 11:42:20;;;;;;;4.90;2.42;;;;;;;10.96;52.74;99520.28;6299067;28;20112;-73
2022/02/22 11:45:26;;;;;;;9.45;2.97;;;;;;;11.15;51.28;99525.84;6297959;28;20040;-73
2022/02/22 11:48:33;;;;;;;8.40;3.10;;;;;;;11.14;52.83;99524.19;6298831;28;20376;-70
2022/02/22 11:51:47;;;;;;;7.93;2.65;;;;;;;11.23;47.60;99539.16;6297560;28;20399;-70
2022/02/22 11:54:48;;;;;;;5.85;2.58;;;;;;;11.35;48.22;99539.25;6297599;28;20044;-70
2022/02/22 11:57:54;;;;;;;6.47;2.47;;;;;;;11.24;51.14;99527.78;6296873;28;20402;-74
2022/02/22 12:01:05;;;;;;;7.35;2.72;;;;;;;11.17;48.48;99533.56;6281308;28;20048;-74
2022/02/22 12:04:22;;;;;;;5.57;2.60;;;;;;;11.43;52.17;99542.13;6298559;28;20036;-70
2022/02/22 12:07:34;;;;;;;5.18;2.47;;;;;;;11.22;50.46;99545.34;6286506;28;20049;-69
2022/02/22 12:10:47;;;;;;;6.05;2.88;;;;;;;11.31;50.61;99551.69;6273549;28;20434;-69
2022/02/22 12:13:50;;;;;;;5.22;2.53;;;;;;;11.08;49.99;99553.34;6272209;28;20565;-73
2022/02/22 12:16:51;;;;;;;7.45;3.20;;;;;;;11.42;49.74;99550.91;6274428;28;20040;-73
2022/02/22 12:19:57;;;;;;;10.15;3.60;;;;;;;11.28;51.60;99565.81;6292556;28;20446;-70
2022/02/22 12:22:58;;;;;;;9.32;4.65;;;;;;;11.27;54.28;99568.53;6297971;28;20124;-74
2022/02/22 12:26:05;;;;;;;9.37;4.47;;;;;;;11.14;56.43;99578.16;6296982;28;20402;-72
2022/02/22 12:29:13;;;;;;;9.20;4.72;;;;;;;10.59;56.45;99582.84;6297903;28;20097;-73
2022/02/22 12:32:14;;;;;;;9.90;5.97;;;;;;;10.74;61.00;99580.97;6296588;28;20048;-69
2022/02/22 12:35:15;;;;;;;12.55;6.07;;;;;;;10.62;57.68;99590.47;6296612;28;20045;-69
2022/02/22 12:38:20;;;;;;;13.27;5.60;;;;;;;10.51;56.40;99587.75;6305665;28;20045;-71
2022/02/22 12:41:22;;;;;;;11.50;5.70;;;;;;;11.02;52.72;99591.16;6275321;28;20407;-70
2022/02/22 12:44:25;;;;;;;7.80;4.70;;;;;;;11.13;54.49;99597.38;6279616;28;20051;-73
2022/02/22 12:47:25;;;;;;;6.82;3.90;;;;;;;10.42;53.78;99595.28;6280747;28;20044;-73
2022/02/22 12:50:26;;;;;;;8.00;4.28;;;;;;;10.65;53.27;99601.53;6271638;28;20073;-73
2022/02/22 12:53:31;;;;;;;13.38;5.07;;;;;;;10.61;52.37;99602.66;6271270;28;20476;-72
2022/02/22 12:56:38;;;;;;;10.75;5.47;;;;;;;10.58;54.04;99595.03;6272443;28;20049;-69
2022/02/22 12:59:41;;;;;;;11.50;5.97;;;;;;;10.48;55.36;99605.28;6272424;28;20404;-73
2022/02/22 13:02:42;;;;;;;12.73;6.00;;;;;;;10.59;54.28;99606.34;6238525;28;20051;-73
2022/02/22 13:05:45;;;;;;;12.23;6.22;;;;;;;10.57;52.70;99610.81;6272387;28;20037;-73
2022/02/22 13:08:47;;;;;;;10.60;5.07;;;;;;;10.60;53.10;99615.81;6271321;28;20043;-73
2022/02/22 13:11:52;;;;;;;6.95;4.03;;;;;;;10.52;50.05;99618.94;6293472;28;20479;-73
2022/02/22 13:14:54;;;;;;;6.85;4.05;;;;;;;10.16;51.13;99620.44;6312692;28;20060;-72
2022/02/22 13:17:55;;;;;;;12.43;5.32;;;;;;;9.91;53.02;99626.44;6295535;28;20068;-72
2022/02/22 13:20:57;;;;;;;9.68;5.00;;;;;;;9.83;54.17;99626.09;6278822;28;20064;-72
2022/02/22 13:24:09;;;;;;;11.93;5.43;;;;;;;9.96;52.91;99629.56;6295293;28;20040;-72
2022/02/22 13:27:11;;;;;;;13.40;6.13;;;;;;;9.69;53.29;99643.44;6296449;28;20041;-69
2022/02/22 13:30:13;;;;;;;14.38;6.57;;;;;;;9.57;56.25;99652.03;6296497;28;20457;-72
2022/02/22 13:33:17;;;;;;;;;;;;;;;9.47;58.18;99657.00;6295548;28;20398;-69
2022/02/22 13:36:18;;;;;;;19.17;8.13;;;;;;;9.42;58.58;99659.03;6329214;28;19932;-72
2022/02/22 13:39:20;;;;;;;15.43;7.80;;;;;;;9.53;60.23;99660.13;6296500;28;20514;-72
2022/02/22 13:42:24;;;;;;;17.95;8.23;;;;;;;9.45;60.64;99671.88;6278229;28;20040;-69
2022/02/22 13:45:29;;;;;;;19.77;7.85;;;;;;;9.02;61.38;99671.09;6328819;28;20442;-68
2022/02/22 13:48:30;;;;;;;15.07;7.65;;;;;;;8.89;60.98;99681.38;6311572;28;20056;-68
2022/02/22 13:51:43;;;;;;;19.97;8.27;;;;;;;9.00;60.91;99676.38;6296233;28;20072;-68
2022/02/22 13:54:48;;;;;;;14.10;7.38;;;;;;;9.31;61.97;99686.66;6295817;28;20277;-69
2022/02/22 13:57:57;;;;;;;13.82;7.65;;;;;;;9.26;62.25;99697.38;6328484;28;20052;-69
2022/02/22 14:01:07;;;;;;;14.88;7.28;;;;;;;9.05;61.71;99684.72;6295963;28;20041;-72
2022/02/22 14:04:08;;;;;;;16.38;7.80;;;;;;;8.87;61.01;99696.25;6295922;28;20044;-72
2022/02/22 14:07:10;;;;;;;13.50;6.63;;;;;;;9.08;61.63;99699.34;6328620;28;20047;-73
2022/02/22 14:10:11;;;;;;;20.45;7.88;;;;;;;9.35;59.34;99703.78;6296208;28;20127;-72
2022/02/22 14:13:16;;;;;;;16.48;8.68;;;;;;;9.25;56.91;99706.13;6295894;28;20117;-72